sensor_id;sensor_type;location;lat;lon;timestamp;P1;durP1;ratioP1;P2;durP2;ratioP2
18905;SDS011;9585;51.018;4.282;2023-04-29T00:02:19;40.08;;;24.75;;
18905;SDS011;9585;51.018;4.282;2023-04-29T00:04:49;41.10;;;24.33;;
18905;SDS011;9585;51.018;4.282;2023-04-29T00:07:17;39.40;;;24.45;;
18905;SDS011;9585;51.018;4.282;2023-04-29T00:09:45;37.75;;;24.02;;
18905;SDS011;9585;51.018;4.282;2023-04-29T00:12:14;36.75;;;23.63;;
18905;SDS011;9585;51.018;4.282;2023-04-29T00:14:43;39.22;;;24.80;;
18905;SDS011;9585;51.018;4.282;2023-04-29T00:17:14;37.03;;;23.15;;
18905;SDS011;9585;51.018;4.282;2023-04-29T00:19:47;38.83;;;23.73;;
18905;SDS011;9585;51.018;4.282;2023-04-29T00:22:16;43.90;;;25.70;;
18905;SDS011;9585;51.018;4.282;2023-04-29T00:24:45;39.08;;;24.45;;
18905;SDS011;9585;51.018;4.282;2023-04-29T00:27:18;42.20;;;25.80;;
18905;SDS011;9585;51.018;4.282;2023-04-29T00:29:47;38.78;;;25.02;;
18905;SDS011;9585;51.018;4.282;2023-04-29T00:32:19;39.60;;;25.40;;
18905;SDS011;9585;51.018;4.282;2023-04-29T00:34:47;43.38;;;25.67;;
18905;SDS011;9585;51.018;4.282;2023-04-29T00:37:15;39.67;;;24.30;;
18905;SDS011;9585;51.018;4.282;2023-04-29T00:39:43;43.30;;;26.35;;
18905;SDS011;9585;51.018;4.282;2023-04-29T00:42:10;41.13;;;25.35;;
18905;SDS011;9585;51.018;4.282;2023-04-29T00:44:39;42.60;;;25.73;;
18905;SDS011;9585;51.018;4.282;2023-04-29T00:47:07;45.78;;;26.25;;
18905;SDS011;9585;51.018;4.282;2023-04-29T00:49:36;46.70;;;26.42;;
18905;SDS011;9585;51.018;4.282;2023-04-29T00:52:04;44.50;;;25.60;;
18905;SDS011;9585;51.018;4.282;2023-04-29T00:54:38;46.58;;;27.13;;
18905;SDS011;9585;51.018;4.282;2023-04-29T00:57:09;44.00;;;26.52;;
18905;SDS011;9585;51.018;4.282;2023-04-29T00:59:41;47.40;;;27.05;;
18905;SDS011;9585;51.018;4.282;2023-04-29T01:02:10;43.72;;;26.85;;
18905;SDS011;9585;51.018;4.282;2023-04-29T01:04:39;43.80;;;27.05;;
18905;SDS011;9585;51.018;4.282;2023-04-29T01:07:12;43.92;;;24.92;;
18905;SDS011;9585;51.018;4.282;2023-04-29T01:12:32;40.58;;;25.75;;
18905;SDS011;9585;51.018;4.282;2023-04-29T01:15:07;41.90;;;24.48;;
18905;SDS011;9585;51.018;4.282;2023-04-29T01:17:44;43.25;;;25.25;;
18905;SDS011;9585;51.018;4.282;2023-04-29T01:20:16;45.58;;;27.20;;
18905;SDS011;9585;51.018;4.282;2023-04-29T01:22:46;43.58;;;25.48;;
18905;SDS011;9585;51.018;4.282;2023-04-29T01:25:17;41.70;;;25.90;;
18905;SDS011;9585;51.018;4.282;2023-04-29T01:27:49;43.03;;;26.65;;
18905;SDS011;9585;51.018;4.282;2023-04-29T01:30:25;39.58;;;25.20;;
18905;SDS011;9585;51.018;4.282;2023-04-29T01:32:59;41.25;;;25.63;;
18905;SDS011;9585;51.018;4.282;2023-04-29T01:35:37;39.83;;;24.35;;
18905;SDS011;9585;51.018;4.282;2023-04-29T01:38:14;29.52;;;20.90;;
18905;SDS011;9585;51.018;4.282;2023-04-29T01:40:52;28.60;;;18.17;;
18905;SDS011;9585;51.018;4.282;2023-04-29T01:43:28;21.60;;;16.17;;
18905;SDS011;9585;51.018;4.282;2023-04-29T01:45:58;25.15;;;18.15;;
18905;SDS011;9585;51.018;4.282;2023-04-29T01:48:29;27.27;;;19.17;;
18905;SDS011;9585;51.018;4.282;2023-04-29T01:50:57;25.75;;;19.08;;
18905;SDS011;9585;51.018;4.282;2023-04-29T01:53:25;26.35;;;17.95;;
18905;SDS011;9585;51.018;4.282;2023-04-29T01:55:55;22.08;;;17.10;;
18905;SDS011;9585;51.018;4.282;2023-04-29T01:58:23;23.45;;;17.05;;
18905;SDS011;9585;51.018;4.282;2023-04-29T02:00:51;25.23;;;17.30;;
18905;SDS011;9585;51.018;4.282;2023-04-29T02:03:18;25.90;;;17.25;;
18905;SDS011;9585;51.018;4.282;2023-04-29T02:05:49;26.23;;;17.70;;
18905;SDS011;9585;51.018;4.282;2023-04-29T02:08:16;26.70;;;17.90;;
18905;SDS011;9585;51.018;4.282;2023-04-29T02:10:55;22.02;;;16.42;;
18905;SDS011;9585;51.018;4.282;2023-04-29T02:13:28;20.55;;;14.88;;
18905;SDS011;9585;51.018;4.282;2023-04-29T02:15:56;17.67;;;13.38;;
18905;SDS011;9585;51.018;4.282;2023-04-29T02:18:23;17.55;;;13.13;;
18905;SDS011;9585;51.018;4.282;2023-04-29T02:20:59;19.35;;;14.90;;
18905;SDS011;9585;51.018;4.282;2023-04-29T02:23:27;20.77;;;14.45;;
18905;SDS011;9585;51.018;4.282;2023-04-29T02:25:55;22.90;;;15.85;;
18905;SDS011;9585;51.018;4.282;2023-04-29T02:28:28;21.90;;;15.77;;
18905;SDS011;9585;51.018;4.282;2023-04-29T02:30:59;23.23;;;17.42;;
18905;SDS011;9585;51.018;4.282;2023-04-29T02:33:26;26.88;;;17.80;;
18905;SDS011;9585;51.018;4.282;2023-04-29T02:35:54;25.90;;;17.30;;
18905;SDS011;9585;51.018;4.282;2023-04-29T02:38:29;25.52;;;18.70;;
18905;SDS011;9585;51.018;4.282;2023-04-29T02:40:57;23.90;;;17.35;;
18905;SDS011;9585;51.018;4.282;2023-04-29T02:43:30;25.05;;;17.50;;
18905;SDS011;9585;51.018;4.282;2023-04-29T02:45:58;18.85;;;15.07;;
18905;SDS011;9585;51.018;4.282;2023-04-29T02:48:26;20.00;;;15.10;;
18905;SDS011;9585;51.018;4.282;2023-04-29T02:50:55;18.80;;;14.93;;
18905;SDS011;9585;51.018;4.282;2023-04-29T02:53:29;19.73;;;13.98;;
18905;SDS011;9585;51.018;4.282;2023-04-29T02:55:58;20.05;;;14.10;;
18905;SDS011;9585;51.018;4.282;2023-04-29T02:58:26;20.08;;;13.13;;
18905;SDS011;9585;51.018;4.282;2023-04-29T03:00:55;19.02;;;14.05;;
18905;SDS011;9585;51.018;4.282;2023-04-29T03:03:22;18.35;;;14.52;;
18905;SDS011;9585;51.018;4.282;2023-04-29T03:05:50;26.75;;;17.05;;
18905;SDS011;9585;51.018;4.282;2023-04-29T03:08:22;24.00;;;16.90;;
18905;SDS011;9585;51.018;4.282;2023-04-29T03:10:55;28.25;;;18.48;;
18905;SDS011;9585;51.018;4.282;2023-04-29T03:13:27;26.10;;;18.17;;
18905;SDS011;9585;51.018;4.282;2023-04-29T03:16:08;26.15;;;18.35;;
18905;SDS011;9585;51.018;4.282;2023-04-29T03:18:38;26.77;;;19.52;;
18905;SDS011;9585;51.018;4.282;2023-04-29T03:21:06;24.48;;;16.63;;
18905;SDS011;9585;51.018;4.282;2023-04-29T03:23:34;28.88;;;19.80;;
18905;SDS011;9585;51.018;4.282;2023-04-29T03:26:03;28.42;;;19.77;;
18905;SDS011;9585;51.018;4.282;2023-04-29T03:28:31;28.17;;;19.55;;
18905;SDS011;9585;51.018;4.282;2023-04-29T03:31:02;28.33;;;19.80;;
18905;SDS011;9585;51.018;4.282;2023-04-29T03:33:31;28.85;;;20.40;;
18905;SDS011;9585;51.018;4.282;2023-04-29T03:35:59;31.95;;;21.98;;
18905;SDS011;9585;51.018;4.282;2023-04-29T03:38:27;29.17;;;21.08;;
18905;SDS011;9585;51.018;4.282;2023-04-29T03:40:58;32.58;;;21.00;;
18905;SDS011;9585;51.018;4.282;2023-04-29T03:43:26;30.88;;;21.35;;
18905;SDS011;9585;51.018;4.282;2023-04-29T03:45:53;29.25;;;21.17;;
18905;SDS011;9585;51.018;4.282;2023-04-29T03:48:21;32.33;;;20.95;;
18905;SDS011;9585;51.018;4.282;2023-04-29T03:50:50;29.60;;;20.25;;
18905;SDS011;9585;51.018;4.282;2023-04-29T03:53:24;31.20;;;20.70;;
18905;SDS011;9585;51.018;4.282;2023-04-29T03:55:54;29.48;;;21.20;;
18905;SDS011;9585;51.018;4.282;2023-04-29T03:58:24;29.77;;;20.30;;
18905;SDS011;9585;51.018;4.282;2023-04-29T04:00:59;26.88;;;20.30;;
18905;SDS011;9585;51.018;4.282;2023-04-29T04:03:33;25.27;;;18.58;;
18905;SDS011;9585;51.018;4.282;2023-04-29T04:06:02;28.30;;;19.33;;
18905;SDS011;9585;51.018;4.282;2023-04-29T04:08:30;26.30;;;17.90;;
18905;SDS011;9585;51.018;4.282;2023-04-29T04:10:58;29.52;;;18.17;;
18905;SDS011;9585;51.018;4.282;2023-04-29T04:13:30;25.83;;;17.90;;
18905;SDS011;9585;51.018;4.282;2023-04-29T04:16:01;23.98;;;16.80;;
18905;SDS011;9585;51.018;4.282;2023-04-29T04:18:35;21.95;;;15.60;;
18905;SDS011;9585;51.018;4.282;2023-04-29T04:21:07;23.98;;;15.02;;
18905;SDS011;9585;51.018;4.282;2023-04-29T04:23:40;21.38;;;14.48;;
18905;SDS011;9585;51.018;4.282;2023-04-29T04:26:08;21.35;;;15.38;;
18905;SDS011;9585;51.018;4.282;2023-04-29T04:28:36;19.15;;;14.80;;
18905;SDS011;9585;51.018;4.282;2023-04-29T04:31:13;19.40;;;14.40;;
18905;SDS011;9585;51.018;4.282;2023-04-29T04:33:41;18.73;;;15.43;;
18905;SDS011;9585;51.018;4.282;2023-04-29T04:36:10;21.70;;;15.10;;
18905;SDS011;9585;51.018;4.282;2023-04-29T04:38:38;19.98;;;14.90;;
18905;SDS011;9585;51.018;4.282;2023-04-29T04:41:06;19.88;;;15.20;;
18905;SDS011;9585;51.018;4.282;2023-04-29T04:43:33;20.30;;;14.88;;
18905;SDS011;9585;51.018;4.282;2023-04-29T04:46:08;21.30;;;14.07;;
18905;SDS011;9585;51.018;4.282;2023-04-29T04:48:38;22.05;;;15.25;;
18905;SDS011;9585;51.018;4.282;2023-04-29T04:51:11;23.98;;;15.60;;
18905;SDS011;9585;51.018;4.282;2023-04-29T04:53:39;20.38;;;15.65;;
18905;SDS011;9585;51.018;4.282;2023-04-29T04:56:07;23.60;;;15.77;;
18905;SDS011;9585;51.018;4.282;2023-04-29T04:58:34;23.83;;;16.00;;
18905;SDS011;9585;51.018;4.282;2023-04-29T05:01:02;24.08;;;16.10;;
18905;SDS011;9585;51.018;4.282;2023-04-29T05:03:30;18.95;;;15.20;;
18905;SDS011;9585;51.018;4.282;2023-04-29T05:05:58;22.73;;;15.73;;
18905;SDS011;9585;51.018;4.282;2023-04-29T05:08:31;24.95;;;15.88;;
18905;SDS011;9585;51.018;4.282;2023-04-29T05:11:01;19.08;;;14.70;;
18905;SDS011;9585;51.018;4.282;2023-04-29T05:13:31;24.80;;;15.63;;
18905;SDS011;9585;51.018;4.282;2023-04-29T05:16:01;25.70;;;14.50;;
18905;SDS011;9585;51.018;4.282;2023-04-29T05:18:37;21.25;;;15.35;;
18905;SDS011;9585;51.018;4.282;2023-04-29T05:21:05;19.08;;;14.38;;
18905;SDS011;9585;51.018;4.282;2023-04-29T05:23:37;20.15;;;14.10;;
18905;SDS011;9585;51.018;4.282;2023-04-29T05:26:09;19.48;;;14.20;;
18905;SDS011;9585;51.018;4.282;2023-04-29T05:28:50;20.70;;;14.00;;
18905;SDS011;9585;51.018;4.282;2023-04-29T05:31:19;15.90;;;12.57;;
18905;SDS011;9585;51.018;4.282;2023-04-29T05:33:47;16.98;;;13.23;;
18905;SDS011;9585;51.018;4.282;2023-04-29T05:36:15;17.92;;;13.40;;
18905;SDS011;9585;51.018;4.282;2023-04-29T05:38:46;17.40;;;13.48;;
18905;SDS011;9585;51.018;4.282;2023-04-29T05:41:31;21.05;;;13.00;;
18905;SDS011;9585;51.018;4.282;2023-04-29T05:44:01;18.63;;;12.63;;
18905;SDS011;9585;51.018;4.282;2023-04-29T05:46:30;17.63;;;12.65;;
18905;SDS011;9585;51.018;4.282;2023-04-29T05:48:58;19.73;;;13.02;;
18905;SDS011;9585;51.018;4.282;2023-04-29T05:51:29;14.43;;;12.57;;
18905;SDS011;9585;51.018;4.282;2023-04-29T05:54:04;17.88;;;13.70;;
18905;SDS011;9585;51.018;4.282;2023-04-29T05:56:32;16.45;;;12.98;;
18905;SDS011;9585;51.018;4.282;2023-04-29T05:58:59;19.60;;;13.95;;
18905;SDS011;9585;51.018;4.282;2023-04-29T06:01:27;15.18;;;12.00;;
18905;SDS011;9585;51.018;4.282;2023-04-29T06:03:55;17.52;;;13.50;;
18905;SDS011;9585;51.018;4.282;2023-04-29T06:06:23;17.38;;;14.15;;
18905;SDS011;9585;51.018;4.282;2023-04-29T06:08:56;21.20;;;13.77;;
18905;SDS011;9585;51.018;4.282;2023-04-29T06:11:27;22.48;;;15.43;;
18905;SDS011;9585;51.018;4.282;2023-04-29T06:14:00;18.52;;;14.52;;
18905;SDS011;9585;51.018;4.282;2023-04-29T06:16:28;18.05;;;14.35;;
18905;SDS011;9585;51.018;4.282;2023-04-29T06:19:02;20.42;;;15.27;;
18905;SDS011;9585;51.018;4.282;2023-04-29T06:21:29;22.02;;;15.93;;
18905;SDS011;9585;51.018;4.282;2023-04-29T06:23:57;18.77;;;14.65;;
18905;SDS011;9585;51.018;4.282;2023-04-29T06:26:24;17.20;;;13.23;;
18905;SDS011;9585;51.018;4.282;2023-04-29T06:28:54;17.77;;;13.80;;
18905;SDS011;9585;51.018;4.282;2023-04-29T06:31:22;19.65;;;15.27;;
18905;SDS011;9585;51.018;4.282;2023-04-29T06:33:50;19.20;;;15.32;;
18905;SDS011;9585;51.018;4.282;2023-04-29T06:36:17;19.75;;;15.13;;
18905;SDS011;9585;51.018;4.282;2023-04-29T06:38:45;19.55;;;15.27;;
18905;SDS011;9585;51.018;4.282;2023-04-29T06:41:13;20.73;;;16.23;;
18905;SDS011;9585;51.018;4.282;2023-04-29T06:43:42;15.73;;;13.93;;
18905;SDS011;9585;51.018;4.282;2023-04-29T06:46:10;17.90;;;14.93;;
18905;SDS011;9585;51.018;4.282;2023-04-29T06:48:38;17.20;;;14.38;;
18905;SDS011;9585;51.018;4.282;2023-04-29T06:51:06;17.42;;;14.52;;
18905;SDS011;9585;51.018;4.282;2023-04-29T06:53:33;19.00;;;15.50;;
18905;SDS011;9585;51.018;4.282;2023-04-29T06:56:04;20.85;;;16.35;;
18905;SDS011;9585;51.018;4.282;2023-04-29T06:58:32;21.08;;;16.48;;
18905;SDS011;9585;51.018;4.282;2023-04-29T07:01:21;22.20;;;16.95;;
18905;SDS011;9585;51.018;4.282;2023-04-29T07:03:51;21.83;;;16.50;;
18905;SDS011;9585;51.018;4.282;2023-04-29T07:06:21;21.75;;;16.83;;
18905;SDS011;9585;51.018;4.282;2023-04-29T07:08:54;17.15;;;14.65;;
18905;SDS011;9585;51.018;4.282;2023-04-29T07:11:25;18.33;;;14.93;;
18905;SDS011;9585;51.018;4.282;2023-04-29T07:13:53;25.75;;;16.60;;
18905;SDS011;9585;51.018;4.282;2023-04-29T07:16:22;21.45;;;15.32;;
18905;SDS011;9585;51.018;4.282;2023-04-29T07:18:52;19.67;;;15.05;;
18905;SDS011;9585;51.018;4.282;2023-04-29T07:21:27;20.20;;;16.00;;
18905;SDS011;9585;51.018;4.282;2023-04-29T07:23:59;19.80;;;15.70;;
18905;SDS011;9585;51.018;4.282;2023-04-29T07:26:31;20.60;;;15.45;;
18905;SDS011;9585;51.018;4.282;2023-04-29T07:28:59;19.88;;;15.95;;
18905;SDS011;9585;51.018;4.282;2023-04-29T07:31:28;22.92;;;16.23;;
18905;SDS011;9585;51.018;4.282;2023-04-29T07:33:55;22.58;;;16.35;;
18905;SDS011;9585;51.018;4.282;2023-04-29T07:36:23;18.55;;;14.82;;
18905;SDS011;9585;51.018;4.282;2023-04-29T07:38:52;18.83;;;15.20;;
18905;SDS011;9585;51.018;4.282;2023-04-29T07:41:23;21.40;;;16.58;;
18905;SDS011;9585;51.018;4.282;2023-04-29T07:43:54;20.60;;;16.45;;
18905;SDS011;9585;51.018;4.282;2023-04-29T07:46:22;20.60;;;15.55;;
18905;SDS011;9585;51.018;4.282;2023-04-29T07:48:51;22.83;;;16.38;;
18905;SDS011;9585;51.018;4.282;2023-04-29T07:51:18;16.70;;;14.80;;
18905;SDS011;9585;51.018;4.282;2023-04-29T07:53:46;17.33;;;13.65;;
18905;SDS011;9585;51.018;4.282;2023-04-29T07:56:16;22.35;;;16.00;;
18905;SDS011;9585;51.018;4.282;2023-04-29T07:58:44;21.02;;;16.33;;
18905;SDS011;9585;51.018;4.282;2023-04-29T08:01:12;20.33;;;15.73;;
18905;SDS011;9585;51.018;4.282;2023-04-29T08:03:42;22.15;;;16.20;;
18905;SDS011;9585;51.018;4.282;2023-04-29T08:06:12;19.58;;;15.57;;
18905;SDS011;9585;51.018;4.282;2023-04-29T08:08:39;21.83;;;16.45;;
18905;SDS011;9585;51.018;4.282;2023-04-29T08:11:08;18.58;;;15.02;;
18905;SDS011;9585;51.018;4.282;2023-04-29T08:13:48;23.05;;;16.15;;
18905;SDS011;9585;51.018;4.282;2023-04-29T08:16:16;19.92;;;15.40;;
18905;SDS011;9585;51.018;4.282;2023-04-29T08:18:43;19.33;;;15.00;;
18905;SDS011;9585;51.018;4.282;2023-04-29T08:21:14;22.80;;;16.67;;
18905;SDS011;9585;51.018;4.282;2023-04-29T08:23:43;20.48;;;15.48;;
18905;SDS011;9585;51.018;4.282;2023-04-29T08:26:11;22.08;;;15.63;;
18905;SDS011;9585;51.018;4.282;2023-04-29T08:28:38;21.33;;;15.77;;
18905;SDS011;9585;51.018;4.282;2023-04-29T08:31:06;23.13;;;16.65;;
18905;SDS011;9585;51.018;4.282;2023-04-29T08:33:44;17.40;;;14.70;;
18905;SDS011;9585;51.018;4.282;2023-04-29T08:36:23;23.33;;;15.13;;
18905;SDS011;9585;51.018;4.282;2023-04-29T08:38:52;17.00;;;13.50;;
18905;SDS011;9585;51.018;4.282;2023-04-29T08:41:23;18.52;;;14.70;;
18905;SDS011;9585;51.018;4.282;2023-04-29T08:43:51;17.33;;;13.88;;
18905;SDS011;9585;51.018;4.282;2023-04-29T08:46:21;16.52;;;13.82;;
18905;SDS011;9585;51.018;4.282;2023-04-29T08:48:53;18.90;;;15.23;;
18905;SDS011;9585;51.018;4.282;2023-04-29T08:51:23;20.35;;;14.07;;
18905;SDS011;9585;51.018;4.282;2023-04-29T08:54:14;19.58;;;13.90;;
18905;SDS011;9585;51.018;4.282;2023-04-29T08:56:47;20.80;;;14.93;;
18905;SDS011;9585;51.018;4.282;2023-04-29T08:59:17;18.02;;;14.57;;
18905;SDS011;9585;51.018;4.282;2023-04-29T09:01:46;17.45;;;14.07;;
18905;SDS011;9585;51.018;4.282;2023-04-29T09:04:20;18.65;;;13.60;;
18905;SDS011;9585;51.018;4.282;2023-04-29T09:06:57;16.65;;;13.15;;
18905;SDS011;9585;51.018;4.282;2023-04-29T09:09:26;18.98;;;13.75;;
18905;SDS011;9585;51.018;4.282;2023-04-29T09:11:59;17.98;;;14.23;;
18905;SDS011;9585;51.018;4.282;2023-04-29T09:18:05;16.38;;;13.35;;
18905;SDS011;9585;51.018;4.282;2023-04-29T09:20:38;15.73;;;13.43;;
18905;SDS011;9585;51.018;4.282;2023-04-29T09:27:11;19.65;;;14.65;;
18905;SDS011;9585;51.018;4.282;2023-04-29T09:30:00;16.55;;;13.38;;
18905;SDS011;9585;51.018;4.282;2023-04-29T09:32:32;14.48;;;12.70;;
18905;SDS011;9585;51.018;4.282;2023-04-29T09:37:49;15.63;;;13.48;;
18905;SDS011;9585;51.018;4.282;2023-04-29T09:40:29;14.68;;;12.45;;
18905;SDS011;9585;51.018;4.282;2023-04-29T09:43:16;14.13;;;12.57;;
18905;SDS011;9585;51.018;4.282;2023-04-29T09:45:57;15.27;;;13.55;;
18905;SDS011;9585;51.018;4.282;2023-04-29T09:48:31;16.13;;;14.05;;
18905;SDS011;9585;51.018;4.282;2023-04-29T09:51:00;16.92;;;14.68;;
18905;SDS011;9585;51.018;4.282;2023-04-29T09:53:28;16.30;;;13.73;;
18905;SDS011;9585;51.018;4.282;2023-04-29T09:55:59;16.00;;;14.40;;
18905;SDS011;9585;51.018;4.282;2023-04-29T09:58:58;16.13;;;13.93;;
18905;SDS011;9585;51.018;4.282;2023-04-29T10:01:40;14.68;;;13.18;;
18905;SDS011;9585;51.018;4.282;2023-04-29T10:04:12;16.30;;;14.20;;
18905;SDS011;9585;51.018;4.282;2023-04-29T10:06:41;15.43;;;13.52;;
18905;SDS011;9585;51.018;4.282;2023-04-29T10:09:14;16.05;;;13.98;;
18905;SDS011;9585;51.018;4.282;2023-04-29T10:11:48;14.60;;;12.50;;
18905;SDS011;9585;51.018;4.282;2023-04-29T10:14:17;14.50;;;13.07;;
18905;SDS011;9585;51.018;4.282;2023-04-29T10:17:07;16.50;;;13.85;;
18905;SDS011;9585;51.018;4.282;2023-04-29T10:19:44;15.48;;;12.50;;
18905;SDS011;9585;51.018;4.282;2023-04-29T10:22:25;13.98;;;12.48;;
18905;SDS011;9585;51.018;4.282;2023-04-29T10:25:20;15.68;;;13.07;;
18905;SDS011;9585;51.018;4.282;2023-04-29T10:28:05;13.32;;;11.98;;
18905;SDS011;9585;51.018;4.282;2023-04-29T10:30:35;15.70;;;13.45;;
18905;SDS011;9585;51.018;4.282;2023-04-29T10:33:04;14.50;;;12.98;;
18905;SDS011;9585;51.018;4.282;2023-04-29T10:35:36;17.35;;;14.88;;
18905;SDS011;9585;51.018;4.282;2023-04-29T10:38:04;15.73;;;13.55;;
18905;SDS011;9585;51.018;4.282;2023-04-29T10:40:43;15.85;;;14.13;;
18905;SDS011;9585;51.018;4.282;2023-04-29T10:46:32;13.93;;;12.52;;
18905;SDS011;9585;51.018;4.282;2023-04-29T10:49:14;12.75;;;11.45;;
18905;SDS011;9585;51.018;4.282;2023-04-29T10:51:43;12.50;;;11.20;;
18905;SDS011;9585;51.018;4.282;2023-04-29T10:54:13;10.98;;;9.85;;
18905;SDS011;9585;51.018;4.282;2023-04-29T10:56:43;14.05;;;12.57;;
18905;SDS011;9585;51.018;4.282;2023-04-29T10:59:16;13.80;;;11.55;;
18905;SDS011;9585;51.018;4.282;2023-04-29T11:05:33;13.00;;;10.90;;
18905;SDS011;9585;51.018;4.282;2023-04-29T11:08:08;13.63;;;12.23;;
18905;SDS011;9585;51.018;4.282;2023-04-29T11:10:37;12.32;;;11.02;;
18905;SDS011;9585;51.018;4.282;2023-04-29T11:13:22;11.38;;;10.23;;
18905;SDS011;9585;51.018;4.282;2023-04-29T11:15:51;11.57;;;10.38;;
18905;SDS011;9585;51.018;4.282;2023-04-29T11:24:48;10.80;;;9.35;;
18905;SDS011;9585;51.018;4.282;2023-04-29T11:27:22;11.27;;;10.07;;
18905;SDS011;9585;51.018;4.282;2023-04-29T11:30:08;14.55;;;11.73;;
18905;SDS011;9585;51.018;4.282;2023-04-29T11:32:37;12.32;;;11.02;;
18905;SDS011;9585;51.018;4.282;2023-04-29T11:35:07;11.95;;;10.63;;
18905;SDS011;9585;51.018;4.282;2023-04-29T11:37:40;12.75;;;10.90;;
18905;SDS011;9585;51.018;4.282;2023-04-29T11:40:09;12.63;;;11.38;;
18905;SDS011;9585;51.018;4.282;2023-04-29T11:42:40;14.75;;;11.60;;
18905;SDS011;9585;51.018;4.282;2023-04-29T11:45:10;13.20;;;11.80;;
18905;SDS011;9585;51.018;4.282;2023-04-29T11:47:41;11.07;;;9.98;;
18905;SDS011;9585;51.018;4.282;2023-04-29T11:50:10;12.18;;;10.75;;
18905;SDS011;9585;51.018;4.282;2023-04-29T11:52:44;14.35;;;12.32;;
18905;SDS011;9585;51.018;4.282;2023-04-29T11:55:13;13.00;;;11.60;;
18905;SDS011;9585;51.018;4.282;2023-04-29T11:57:47;11.32;;;10.15;;
18905;SDS011;9585;51.018;4.282;2023-04-29T12:00:15;11.38;;;9.90;;
18905;SDS011;9585;51.018;4.282;2023-04-29T12:02:44;9.95;;;8.95;;
18905;SDS011;9585;51.018;4.282;2023-04-29T12:05:12;12.25;;;10.93;;
18905;SDS011;9585;51.018;4.282;2023-04-29T12:07:42;11.02;;;9.80;;
18905;SDS011;9585;51.018;4.282;2023-04-29T12:10:14;10.68;;;9.40;;
18905;SDS011;9585;51.018;4.282;2023-04-29T12:12:51;10.05;;;9.05;;
18905;SDS011;9585;51.018;4.282;2023-04-29T12:15:34;11.52;;;10.05;;
18905;SDS011;9585;51.018;4.282;2023-04-29T12:18:01;10.63;;;9.55;;
18905;SDS011;9585;51.018;4.282;2023-04-29T12:20:32;10.40;;;9.32;;
18905;SDS011;9585;51.018;4.282;2023-04-29T12:23:11;10.93;;;9.75;;
18905;SDS011;9585;51.018;4.282;2023-04-29T12:25:43;11.48;;;9.48;;
18905;SDS011;9585;51.018;4.282;2023-04-29T12:28:21;9.98;;;8.75;;
18905;SDS011;9585;51.018;4.282;2023-04-29T12:30:52;10.18;;;8.32;;
18905;SDS011;9585;51.018;4.282;2023-04-29T12:33:21;10.07;;;9.07;;
18905;SDS011;9585;51.018;4.282;2023-04-29T12:35:56;8.57;;;7.47;;
18905;SDS011;9585;51.018;4.282;2023-04-29T12:38:27;9.88;;;8.52;;
18905;SDS011;9585;51.018;4.282;2023-04-29T12:40:57;11.48;;;10.05;;
18905;SDS011;9585;51.018;4.282;2023-04-29T12:43:26;11.27;;;9.40;;
18905;SDS011;9585;51.018;4.282;2023-04-29T12:46:02;10.32;;;8.48;;
18905;SDS011;9585;51.018;4.282;2023-04-29T12:48:39;10.45;;;9.35;;
18905;SDS011;9585;51.018;4.282;2023-04-29T12:51:10;11.20;;;9.88;;
18905;SDS011;9585;51.018;4.282;2023-04-29T12:53:40;10.68;;;9.52;;
18905;SDS011;9585;51.018;4.282;2023-04-29T12:56:10;10.55;;;9.50;;
18905;SDS011;9585;51.018;4.282;2023-04-29T12:59:11;10.30;;;9.25;;
18905;SDS011;9585;51.018;4.282;2023-04-29T13:02:11;12.32;;;9.35;;
18905;SDS011;9585;51.018;4.282;2023-04-29T13:04:42;10.20;;;9.13;;
18905;SDS011;9585;51.018;4.282;2023-04-29T13:07:25;11.73;;;10.27;;
18905;SDS011;9585;51.018;4.282;2023-04-29T13:10:01;12.07;;;10.82;;
18905;SDS011;9585;51.018;4.282;2023-04-29T13:12:43;11.63;;;8.40;;
18905;SDS011;9585;51.018;4.282;2023-04-29T13:15:27;13.00;;;9.63;;
18905;SDS011;9585;51.018;4.282;2023-04-29T13:18:01;9.23;;;8.18;;
18905;SDS011;9585;51.018;4.282;2023-04-29T13:20:34;10.18;;;7.75;;
18905;SDS011;9585;51.018;4.282;2023-04-29T13:30:06;7.93;;;6.80;;
18905;SDS011;9585;51.018;4.282;2023-04-29T13:36:17;9.73;;;8.30;;
18905;SDS011;9585;51.018;4.282;2023-04-29T13:38:47;8.98;;;8.07;;
18905;SDS011;9585;51.018;4.282;2023-04-29T13:44:45;10.07;;;8.55;;
18905;SDS011;9585;51.018;4.282;2023-04-29T13:47:26;10.40;;;9.38;;
18905;SDS011;9585;51.018;4.282;2023-04-29T13:49:55;11.70;;;10.48;;
18905;SDS011;9585;51.018;4.282;2023-04-29T13:52:34;11.65;;;10.07;;
18905;SDS011;9585;51.018;4.282;2023-04-29T13:55:17;9.13;;;8.23;;
18905;SDS011;9585;51.018;4.282;2023-04-29T13:57:54;10.80;;;8.30;;
18905;SDS011;9585;51.018;4.282;2023-04-29T14:00:43;9.05;;;7.93;;
18905;SDS011;9585;51.018;4.282;2023-04-29T14:03:23;7.20;;;5.88;;
18905;SDS011;9585;51.018;4.282;2023-04-29T14:05:53;7.18;;;6.35;;
18905;SDS011;9585;51.018;4.282;2023-04-29T14:08:24;8.93;;;7.70;;
18905;SDS011;9585;51.018;4.282;2023-04-29T14:11:07;9.23;;;7.30;;
18905;SDS011;9585;51.018;4.282;2023-04-29T14:14:04;10.13;;;7.15;;
18905;SDS011;9585;51.018;4.282;2023-04-29T14:16:35;7.82;;;6.70;;
18905;SDS011;9585;51.018;4.282;2023-04-29T14:19:07;8.45;;;6.60;;
18905;SDS011;9585;51.018;4.282;2023-04-29T14:21:36;11.63;;;7.15;;
18905;SDS011;9585;51.018;4.282;2023-04-29T14:24:06;7.85;;;7.00;;
18905;SDS011;9585;51.018;4.282;2023-04-29T14:26:36;7.88;;;7.05;;
18905;SDS011;9585;51.018;4.282;2023-04-29T14:29:13;9.25;;;6.90;;
18905;SDS011;9585;51.018;4.282;2023-04-29T14:31:45;7.47;;;6.65;;
18905;SDS011;9585;51.018;4.282;2023-04-29T14:34:20;9.35;;;7.10;;
18905;SDS011;9585;51.018;4.282;2023-04-29T14:36:48;7.18;;;6.00;;
18905;SDS011;9585;51.018;4.282;2023-04-29T14:39:25;7.80;;;6.93;;
18905;SDS011;9585;51.018;4.282;2023-04-29T14:42:06;8.90;;;7.03;;
18905;SDS011;9585;51.018;4.282;2023-04-29T14:44:48;8.15;;;6.25;;
18905;SDS011;9585;51.018;4.282;2023-04-29T14:47:34;5.85;;;5.18;;
18905;SDS011;9585;51.018;4.282;2023-04-29T14:50:16;6.00;;;5.40;;
18905;SDS011;9585;51.018;4.282;2023-04-29T14:52:49;5.85;;;5.25;;
18905;SDS011;9585;51.018;4.282;2023-04-29T14:55:29;7.25;;;5.30;;
18905;SDS011;9585;51.018;4.282;2023-04-29T14:58:06;7.53;;;6.00;;
18905;SDS011;9585;51.018;4.282;2023-04-29T15:00:39;6.82;;;6.03;;
18905;SDS011;9585;51.018;4.282;2023-04-29T15:03:12;7.25;;;6.38;;
18905;SDS011;9585;51.018;4.282;2023-04-29T15:05:44;7.45;;;6.38;;
18905;SDS011;9585;51.018;4.282;2023-04-29T15:08:13;8.00;;;6.35;;
18905;SDS011;9585;51.018;4.282;2023-04-29T15:10:55;7.53;;;6.00;;
18905;SDS011;9585;51.018;4.282;2023-04-29T15:13:30;6.82;;;5.45;;
18905;SDS011;9585;51.018;4.282;2023-04-29T15:16:05;5.55;;;5.00;;
18905;SDS011;9585;51.018;4.282;2023-04-29T15:18:34;7.03;;;5.80;;
18905;SDS011;9585;51.018;4.282;2023-04-29T15:21:14;6.68;;;6.03;;
18905;SDS011;9585;51.018;4.282;2023-04-29T15:23:42;7.88;;;6.00;;
18905;SDS011;9585;51.018;4.282;2023-04-29T15:26:14;8.93;;;6.10;;
18905;SDS011;9585;51.018;4.282;2023-04-29T15:28:44;5.88;;;5.13;;
18905;SDS011;9585;51.018;4.282;2023-04-29T15:31:13;6.50;;;5.65;;
18905;SDS011;9585;51.018;4.282;2023-04-29T15:33:41;7.30;;;6.15;;
18905;SDS011;9585;51.018;4.282;2023-04-29T15:36:18;7.43;;;6.63;;
18905;SDS011;9585;51.018;4.282;2023-04-29T15:38:55;6.13;;;5.47;;
18905;SDS011;9585;51.018;4.282;2023-04-29T15:41:30;7.28;;;5.90;;
18905;SDS011;9585;51.018;4.282;2023-04-29T15:44:01;5.63;;;5.05;;
18905;SDS011;9585;51.018;4.282;2023-04-29T15:46:29;8.35;;;7.55;;
18905;SDS011;9585;51.018;4.282;2023-04-29T15:49:01;9.75;;;8.73;;